ENRA/MQN METAR and TAF weather

Enter ICAO airport designator
Station Type Date Time Source
ENRA METAR 2019/12/08 13:50 UTC NOAA

ENRA 081350Z VRB02KT 9999 SCT045 M03/M04 Q0976


Station Type Date Time Source
ENRA Decoded METAR 2019/12/08 13:50 UTC NOAA

Mo I Rana / Rossvoll, Norway (ENRA) 66-22N 014-18E 70M
Dec 08, 2019 - 08:50 AM EST / 2019.12.08 1350 UTC
Wind: Variable at 2 MPH (2 KT):0
Visibility: greater than 7 mile(s):0
Sky conditions: partly cloudy
Temperature: 26 F (-3 C)
Dew Point: 24 F (-4 C)
Relative Humidity: 92%
Pressure (altimeter): 28.82 in. Hg (0976 hPa)
ob: ENRA 081350Z VRB02KT 9999 SCT045 M03/M04 Q0976
cycle: 14

Station Type Date Time Source
ENRA TAF UTC NOAA

Error!

Example: see airport list